Time;durP1;ratioP1;P1;durP2;ratioP2;P2;SDS_P1;SDS_P2;PMS_P1;PMS_P2;Temp;Humidity;BMP_temperature;BMP_pressure;BME280_temperature;BME280_humidity;BME280_pressure;Samples;Min_cycle;Max_cycle;Signal;HPM_P1;HPM_P2
2023/05/20 00:02:14;;;;;;;14.50;5.47;;;10.50;99.90;;;;;;5054943;28;20500;-68
2023/05/20 00:04:42;;;;;;;10.65;5.35;;;10.50;99.90;;;;;;5054302;28;20044;-68
2023/05/20 00:07:09;;;;;;;12.60;5.40;;;10.50;99.90;;;;;;5072324;28;20060;-68
2023/05/20 00:09:39;;;;;;;13.10;5.78;;;10.40;99.90;;;;;;5054588;28;20060;-69
2023/05/20 00:12:06;;;;;;;17.17;5.15;;;10.50;99.90;;;;;;5054209;28;20282;-68
2023/05/20 00:14:33;;;;;;;9.77;5.22;;;10.40;99.90;;;;;;5054605;28;20044;-68
2023/05/20 00:17:00;;;;;;;13.70;5.60;;;10.40;99.90;;;;;;5054499;28;20055;-68
2023/05/20 00:19:27;;;;;;;11.32;5.47;;;10.40;99.90;;;;;;5071880;28;20506;-68
2023/05/20 00:21:56;;;;;;;14.60;5.15;;;10.40;99.90;;;;;;5054379;28;20041;-68
2023/05/20 00:24:23;;;;;;;11.23;5.43;;;10.40;99.90;;;;;;5072205;28;20496;-68
2023/05/20 00:26:51;;;;;;;9.45;4.90;;;10.40;99.90;;;;;;5054007;28;20056;-68
2023/05/20 00:29:18;;;;;;;15.65;5.63;;;10.30;99.90;;;;;;5054414;28;20059;-68
2023/05/20 00:31:45;;;;;;;13.70;5.97;;;10.30;99.90;;;;;;5072487;28;20048;-68
2023/05/20 00:34:12;;;;;;;11.07;5.57;;;10.30;99.90;;;;;;5051292;28;20048;-68
2023/05/20 00:36:39;;;;;;;16.80;5.25;;;10.30;99.90;;;;;;5054105;28;20057;-68
2023/05/20 00:39:06;;;;;;;12.15;5.00;;;10.80;99.90;;;;;;5072173;28;20044;-67
2023/05/20 00:41:33;;;;;;;14.00;5.53;;;10.20;99.90;;;;;;5053715;28;20059;-68
2023/05/20 00:44:01;;;;;;;12.20;5.38;;;10.80;99.90;;;;;;5054270;28;20048;-68
2023/05/20 00:46:29;;;;;;;17.17;5.65;;;10.30;99.90;;;;;;5053985;28;20051;-67
2023/05/20 00:48:56;;;;;;;11.88;5.60;;;10.20;99.90;;;;;;5053757;28;20044;-67
2023/05/20 00:51:23;;;;;;;17.20;5.55;;;10.30;99.90;;;;;;5072158;28;20055;-68
2023/05/20 00:53:50;;;;;;;14.70;5.10;;;10.20;99.90;;;;;;5054063;28;20052;-68
2023/05/20 00:56:18;;;;;;;12.85;4.75;;;10.20;99.90;;;;;;5071866;28;20040;-68
2023/05/20 00:58:45;;;;;;;12.00;4.60;;;10.30;99.90;;;;;;5053992;28;20052;-66
2023/05/20 01:01:13;;;;;;;14.80;4.63;;;10.30;99.90;;;;;;5053706;28;20052;-67
2023/05/20 01:03:40;;;;;;;12.35;5.32;;;10.30;99.90;;;;;;5051984;28;20045;-68
2023/05/20 01:06:07;;;;;;;13.32;4.55;;;10.20;99.90;;;;;;5072037;28;20048;-67
2023/05/20 01:08:34;;;;;;;9.52;5.05;;;10.20;99.90;;;;;;5053031;28;20510;-67
2023/05/20 01:11:05;;;;;;;13.30;5.35;;;10.30;99.90;;;;;;5053980;28;20131;-67
2023/05/20 01:13:33;;;;;;;;;;;10.20;99.90;;;;;;5076530;28;20451;-67
2023/05/20 01:16:03;;;;;;;11.95;5.07;;;10.30;99.90;;;;;;5057509;28;19920;-67
2023/05/20 01:18:33;;;;;;;9.25;4.55;;;10.40;99.90;;;;;;5057683;28;20075;-67
2023/05/20 01:21:02;;;;;;;10.02;4.35;;;10.20;99.90;;;;;;5057988;28;20071;-69
2023/05/20 01:23:38;;;;;;;12.57;4.80;;;10.20;99.90;;;;;;5073713;28;20040;-67
2023/05/20 01:26:05;;;;;;;8.65;4.38;;;10.20;99.90;;;;;;5055773;28;20581;-67
2023/05/20 01:28:32;;;;;;;10.73;4.65;;;10.20;99.90;;;;;;5057671;28;20477;-68
2023/05/20 01:31:01;;;;;;;8.15;4.90;;;10.20;99.90;;;;;;5056971;28;20048;-68
2023/05/20 01:33:30;;;;;;;11.80;5.50;;;10.20;99.90;;;;;;5073670;28;20040;-69
2023/05/20 01:35:58;;;;;;;14.07;5.45;;;10.20;99.90;;;;;;5075670;28;20053;-69
2023/05/20 01:38:26;;;;;;;11.05;5.50;;;10.20;99.90;;;;;;5075076;28;20048;-67
2023/05/20 01:40:57;;;;;;;11.35;5.03;;;10.10;99.90;;;;;;5057669;28;20049;-68
2023/05/20 01:43:25;;;;;;;9.95;5.07;;;10.90;99.90;;;;;;5074844;28;20048;-68
2023/05/20 01:45:52;;;;;;;14.88;4.78;;;10.10;99.90;;;;;;5057395;28;20044;-68
2023/05/20 01:48:19;;;;;;;9.45;4.70;;;10.10;99.90;;;;;;5055153;28;20060;-68
2023/05/20 01:50:46;;;;;;;10.23;4.72;;;10.00;99.90;;;;;;5056759;28;20063;-68
2023/05/20 01:53:13;;;;;;;13.63;4.88;;;10.00;99.90;;;;;;5057424;28;20063;-69
2023/05/20 01:55:40;;;;;;;9.95;5.20;;;10.00;99.90;;;;;;5057333;28;20053;-67
2023/05/20 01:58:08;;;;;;;9.57;5.03;;;9.90;99.90;;;;;;5056765;28;20063;-67
2023/05/20 02:00:35;;;;;;;9.70;4.72;;;9.90;99.90;;;;;;5057249;28;20052;-66
2023/05/20 02:03:02;;;;;;;9.55;5.07;;;9.90;99.90;;;;;;5057235;28;20492;-67
2023/05/20 02:05:30;;;;;;;9.27;4.93;;;9.90;99.90;;;;;;5056476;28;20041;-67
2023/05/20 02:07:57;;;;;;;10.93;4.60;;;9.90;99.90;;;;;;5052746;28;20060;-67
2023/05/20 02:10:24;;;;;;;9.88;4.70;;;9.90;99.90;;;;;;5052436;28;20060;-66
2023/05/20 02:12:50;;;;;;;12.18;5.18;;;10.50;99.90;;;;;;5052021;28;20049;-67
2023/05/20 02:15:19;;;;;;;8.95;4.50;;;9.80;99.90;;;;;;5053914;28;20037;-67
2023/05/20 02:17:46;;;;;;;7.68;4.90;;;9.80;99.90;;;;;;5053564;28;20467;-66
2023/05/20 02:20:14;;;;;;;10.82;5.25;;;9.80;99.90;;;;;;5051921;28;20102;-66
2023/05/20 02:22:40;;;;;;;7.93;4.90;;;9.80;99.90;;;;;;5052080;28;20044;-67
2023/05/20 02:25:09;;;;;;;8.35;4.90;;;10.00;99.90;;;;;;5052139;28;20049;-67
2023/05/20 02:27:36;;;;;;;12.65;5.25;;;9.70;99.90;;;;;;5052852;28;20499;-67
2023/05/20 02:30:03;;;;;;;7.18;4.60;;;9.80;99.90;;;;;;5053425;28;20057;-65
2023/05/20 02:32:32;;;;;;;7.72;4.35;;;9.70;99.90;;;;;;5050971;28;20053;-67
2023/05/20 02:34:59;;;;;;;8.18;4.65;;;9.70;99.90;;;;;;5051932;28;20049;-67
2023/05/20 02:37:27;;;;;;;10.90;4.75;;;9.70;99.90;;;;;;5052445;28;20448;-67
2023/05/20 02:39:55;;;;;;;16.85;5.07;;;9.70;99.90;;;;;;5051525;28;20057;-67
2023/05/20 02:42:22;;;;;;;8.30;4.80;;;9.80;99.90;;;;;;5053230;28;20047;-67
2023/05/20 02:44:48;;;;;;;7.05;4.40;;;10.00;99.90;;;;;;5051976;28;20386;-67
2023/05/20 02:47:15;;;;;;;8.27;4.15;;;9.70;99.90;;;;;;5051348;28;20064;-66
2023/05/20 02:49:44;;;;;;;12.85;4.65;;;9.70;99.90;;;;;;5051140;28;20049;-66
2023/05/20 02:52:11;;;;;;;11.20;4.60;;;9.70;99.90;;;;;;5052093;28;20056;-67
2023/05/20 02:54:37;;;;;;;14.18;4.57;;;10.20;99.90;;;;;;5051398;28;20063;-66
2023/05/20 02:57:05;;;;;;;8.63;4.45;;;9.70;99.90;;;;;;5052013;28;20053;-67
2023/05/20 02:59:32;;;;;;;10.48;4.28;;;9.70;99.90;;;;;;5051918;28;20053;-66
2023/05/20 03:01:59;;;;;;;9.57;4.43;;;9.60;99.90;;;;;;5051041;28;20053;-65
2023/05/20 03:04:26;;;;;;;7.38;4.05;;;9.70;99.90;;;;;;5051632;28;20045;-66
2023/05/20 03:06:56;;;;;;;5.80;3.63;;;9.70;99.90;;;;;;5014403;28;1260841;-65
2023/05/20 03:09:23;;;;;;;7.45;4.15;;;9.70;99.90;;;;;;5073072;28;20492;-66
2023/05/20 03:11:50;;;;;;;6.10;3.63;;;9.80;99.90;;;;;;5055984;28;20055;-66
2023/05/20 03:14:17;;;;;;;6.70;3.80;;;9.80;99.90;;;;;;5073716;28;20492;-66
2023/05/20 03:16:44;;;;;;;7.55;4.07;;;9.80;99.90;;;;;;5072978;28;20086;-66
2023/05/20 03:19:11;;;;;;;8.00;4.20;;;9.80;99.90;;;;;;5055654;28;20045;-67
2023/05/20 03:21:38;;;;;;;8.10;3.72;;;9.90;99.90;;;;;;5072985;28;20048;-67
2023/05/20 03:24:07;;;;;;;6.80;3.63;;;10.70;99.90;;;;;;5055262;28;20048;-67
2023/05/20 03:26:36;;;;;;;9.23;3.42;;;9.80;99.90;;;;;;5055127;28;20072;-68
2023/05/20 03:29:03;;;;;;;10.35;4.28;;;9.90;99.90;;;;;;5052709;28;20124;-68
2023/05/20 03:31:30;;;;;;;11.93;4.20;;;9.80;99.90;;;;;;5055549;28;20094;-67
2023/05/20 03:33:57;;;;;;;9.48;3.70;;;9.80;99.90;;;;;;5072790;28;20056;-67
2023/05/20 03:36:24;;;;;;;9.00;4.13;;;9.80;99.90;;;;;;5072280;28;20094;-68
2023/05/20 03:38:51;;;;;;;8.00;4.40;;;9.70;99.90;;;;;;5055640;28;20056;-67
2023/05/20 03:41:19;;;;;;;9.80;3.60;;;9.70;99.90;;;;;;5055007;28;20055;-68
2023/05/20 03:43:46;;;;;;;5.20;3.05;;;9.70;99.90;;;;;;5054892;28;20430;-67
2023/05/20 03:46:13;;;;;;;6.30;3.63;;;9.70;99.90;;;;;;5053038;28;20044;-67
2023/05/20 03:48:41;;;;;;;9.10;3.05;;;9.60;99.90;;;;;;5073057;28;20079;-68
2023/05/20 03:51:07;;;;;;;6.93;3.45;;;9.70;99.90;;;;;;5054584;28;20057;-67
2023/05/20 03:53:34;;;;;;;6.85;3.67;;;9.60;99.90;;;;;;5073120;28;20044;-70
2023/05/20 03:56:01;;;;;;;6.47;3.33;;;9.60;99.90;;;;;;5055006;28;20045;-71
2023/05/20 03:58:30;;;;;;;6.18;3.10;;;9.70;99.90;;;;;;5072094;28;20488;-73
2023/05/20 04:00:57;;;;;;;5.63;2.90;;;9.70;99.90;;;;;;5072834;28;20141;-71
2023/05/20 04:03:24;;;;;;;5.57;3.00;;;9.80;99.90;;;;;;5054889;28;20060;-71
2023/05/20 04:05:51;;;;;;;5.30;3.00;;;9.80;99.90;;;;;;5053904;28;20051;-67
2023/05/20 04:08:18;;;;;;;7.88;3.03;;;9.90;99.90;;;;;;5051391;28;20056;-72
2023/05/20 04:10:45;;;;;;;4.50;2.70;;;10.00;99.90;;;;;;5052935;28;20098;-71
2023/05/20 04:13:14;;;;;;;6.43;3.22;;;10.10;99.90;;;;;;5051131;28;20048;-71
2023/05/20 04:15:43;;;;;;;6.00;3.25;;;10.10;99.90;;;;;;5050400;28;20052;-71
2023/05/20 04:18:10;;;;;;;5.22;2.97;;;10.40;99.90;;;;;;5050804;28;20049;-71
2023/05/20 04:20:37;;;;;;;6.57;2.95;;;10.30;99.90;;;;;;5050536;28;20136;-72
2023/05/20 04:23:03;;;;;;;6.43;3.13;;;10.30;99.90;;;;;;5051537;28;20045;-69
2023/05/20 04:25:30;;;;;;;5.55;2.47;;;11.00;99.90;;;;;;5051911;28;20116;-68
2023/05/20 04:27:58;;;;;;;5.75;2.88;;;10.50;99.90;;;;;;5052550;28;20099;-68
2023/05/20 04:30:25;;;;;;;3.72;2.30;;;10.50;99.90;;;;;;5051012;28;20045;-67
2023/05/20 04:32:54;;;;;;;3.95;2.80;;;10.60;99.90;;;;;;5050743;28;20083;-67
2023/05/20 04:35:24;;;;;;;4.25;2.63;;;10.70;99.90;;;;;;5052250;28;20045;-67
2023/05/20 04:37:52;;;;;;;4.85;2.67;;;10.70;99.90;;;;;;5051453;28;20049;-68
2023/05/20 04:40:19;;;;;;;4.95;2.63;;;10.80;99.90;;;;;;5050555;28;21229;-67
2023/05/20 04:42:46;;;;;;;4.50;2.72;;;10.90;99.90;;;;;;5052419;28;20049;-66
2023/05/20 04:45:13;;;;;;;5.43;2.17;;;11.00;99.90;;;;;;5050715;28;20057;-67
2023/05/20 04:47:41;;;;;;;3.97;2.20;;;11.80;99.90;;;;;;5050235;28;20052;-68
2023/05/20 04:50:10;;;;;;;7.15;2.42;;;11.10;99.90;;;;;;5051056;28;20056;-71
2023/05/20 04:52:38;;;;;;;5.63;3.05;;;11.20;99.90;;;;;;5051094;28;20126;-71
2023/05/20 04:55:07;;;;;;;3.47;2.00;;;11.30;99.90;;;;;;5050543;28;20114;-68
2023/05/20 04:57:34;;;;;;;3.78;2.08;;;11.40;99.90;;;;;;5051132;28;20094;-67
2023/05/20 05:00:01;;;;;;;5.53;1.80;;;11.40;99.90;;;;;;5050774;28;20064;-67
2023/05/20 05:02:28;;;;;;;3.97;2.15;;;11.50;99.90;;;;;;5051698;28;20075;-68
2023/05/20 05:04:55;;;;;;;4.05;2.25;;;11.60;99.90;;;;;;5050605;28;20056;-68
2023/05/20 05:07:23;;;;;;;5.25;1.92;;;11.60;99.90;;;;;;5060567;28;20503;-68
2023/05/20 05:09:50;;;;;;;3.20;1.98;;;11.60;99.90;;;;;;5071958;28;20411;-68
2023/05/20 05:12:17;;;;;;;3.92;1.80;;;11.70;99.90;;;;;;5053985;28;20463;-68
2023/05/20 05:14:44;;;;;;;7.40;2.28;;;11.80;99.90;;;;;;5069055;28;20068;-68
2023/05/20 05:17:11;;;;;;;4.13;1.80;;;11.70;99.90;;;;;;5054083;28;20044;-67
2023/05/20 05:19:38;;;;;;;3.10;1.60;;;12.10;99.90;;;;;;5071937;28;20056;-68
2023/05/20 05:22:05;;;;;;;3.67;1.52;;;11.90;99.90;;;;;;5053542;28;20045;-68
2023/05/20 05:24:33;;;;;;;3.83;1.70;;;12.00;99.90;;;;;;5048530;28;20450;-67
2023/05/20 05:27:01;;;;;;;2.20;1.45;;;12.00;99.90;;;;;;5045020;28;20049;-68
2023/05/20 05:29:27;;;;;;;2.58;1.40;;;12.80;99.90;;;;;;5048538;28;20130;-68
2023/05/20 05:31:54;;;;;;;3.75;2.10;;;12.30;99.90;;;;;;5071293;28;20102;-68
2023/05/20 05:34:21;;;;;;;3.33;1.77;;;13.10;99.90;;;;;;5068472;28;20105;-67
2023/05/20 05:36:48;;;;;;;4.43;2.00;;;12.90;99.90;;;;;;5070190;28;20045;-68
2023/05/20 05:39:15;;;;;;;4.95;1.95;;;13.00;99.90;;;;;;5069451;28;20045;-67
2023/05/20 05:41:43;;;;;;;3.28;1.48;;;13.20;99.90;;;;;;5069861;28;20048;-68
2023/05/20 05:44:10;;;;;;;5.60;1.60;;;13.50;99.90;;;;;;5047704;28;20056;-67
2023/05/20 05:46:37;;;;;;;3.92;1.75;;;13.90;99.90;;;;;;5052264;28;20056;-68
2023/05/20 05:49:04;;;;;;;4.07;1.77;;;14.20;99.90;;;;;;5051343;28;20057;-67
2023/05/20 05:51:31;;;;;;;3.22;1.50;;;14.50;99.90;;;;;;5051760;28;20110;-67
2023/05/20 05:53:58;;;;;;;3.47;1.42;;;14.70;99.90;;;;;;5050799;28;20056;-68
2023/05/20 05:56:25;;;;;;;4.57;1.55;;;14.80;99.90;;;;;;5067787;28;20056;-67
2023/05/20 05:58:53;;;;;;;4.50;1.38;;;14.90;99.90;;;;;;5053769;28;20114;-67
2023/05/20 06:01:20;;;;;;;2.97;1.50;;;15.10;99.90;;;;;;5073313;28;20052;-67
2023/05/20 06:03:47;;;;;;;4.28;1.80;;;15.20;99.90;;;;;;5054017;28;20051;-68
2023/05/20 06:06:14;;;;;;;7.32;1.73;;;15.30;99.90;;;;;;5073420;28;20052;-68
2023/05/20 06:08:41;;;;;;;4.47;1.48;;;15.20;99.90;;;;;;5056100;28;20044;-67
2023/05/20 06:11:09;;;;;;;3.63;1.80;;;15.30;99.90;;;;;;5054383;28;20060;-67
2023/05/20 06:13:36;;;;;;;2.78;1.10;;;15.40;99.90;;;;;;5074528;28;20056;-69
2023/05/20 06:16:05;;;;;;;6.25;1.58;;;15.50;99.90;;;;;;5053937;28;20118;-68
2023/05/20 06:18:31;;;;;;;4.38;1.50;;;15.60;99.90;;;;;;5055658;28;20064;-67
2023/05/20 06:20:59;;;;;;;4.30;1.77;;;15.70;99.90;;;;;;5073094;28;20063;-68
2023/05/20 06:23:26;;;;;;;2.80;1.50;;;16.00;99.90;;;;;;5055329;28;20060;-67
2023/05/20 06:25:53;;;;;;;2.22;1.10;;;16.00;99.90;;;;;;5054518;28;20106;-68
2023/05/20 06:28:21;;;;;;;3.75;1.42;;;16.10;99.90;;;;;;5055522;28;20053;-68
2023/05/20 06:30:48;;;;;;;2.50;1.40;;;16.30;99.90;;;;;;5052805;28;20071;-68
2023/05/20 06:33:16;;;;;;;2.55;1.33;;;16.30;99.90;;;;;;5055211;28;20128;-67
2023/05/20 06:35:43;;;;;;;3.05;1.50;;;16.50;99.90;;;;;;5054363;28;20500;-67
2023/05/20 06:38:10;;;;;;;6.97;1.92;;;16.40;99.90;;;;;;5055160;28;20059;-67
2023/05/20 06:40:37;;;;;;;2.63;1.27;;;16.60;99.90;;;;;;5071365;28;20049;-67
2023/05/20 06:43:04;;;;;;;3.72;1.17;;;16.60;99.90;;;;;;5073807;28;20557;-67
2023/05/20 06:45:31;;;;;;;3.70;1.45;;;16.90;99.90;;;;;;5052473;28;20055;-67
2023/05/20 06:47:59;;;;;;;3.22;1.70;;;17.20;99.90;;;;;;5072969;28;20040;-68
2023/05/20 06:50:27;;;;;;;3.55;1.45;;;17.60;99.90;;;;;;5053949;28;20500;-68
2023/05/20 06:52:55;;;;;;;3.92;1.52;;;17.80;99.90;;;;;;5054573;28;20049;-68
2023/05/20 06:55:22;;;;;;;4.13;1.30;;;18.00;99.90;;;;;;5054620;28;20059;-69
2023/05/20 06:57:49;;;;;;;3.63;1.52;;;18.40;99.90;;;;;;5054744;28;20178;-68
2023/05/20 07:00:16;;;;;;;3.10;1.30;;;18.70;99.90;;;;;;5072716;28;20048;-67
2023/05/20 07:02:43;;;;;;;4.45;1.23;;;18.90;99.30;;;;;;5053865;28;20105;-68
2023/05/20 07:05:10;;;;;;;2.03;1.00;;;19.00;99.40;;;;;;5054799;28;20110;-67
2023/05/20 07:07:39;;;;;;;3.55;1.25;;;19.30;97.90;;;;;;5068877;28;20048;-68
2023/05/20 07:10:08;;;;;;;3.35;1.20;;;19.70;98.10;;;;;;5067188;28;20045;-67
2023/05/20 07:12:35;;;;;;;3.40;1.38;;;20.00;97.10;;;;;;5051862;28;20074;-68
2023/05/20 07:15:02;;;;;;;3.92;1.42;;;20.30;97.80;;;;;;5053483;28;20067;-68
2023/05/20 07:17:29;;;;;;;2.97;1.58;;;20.50;97.30;;;;;;5070523;28;20098;-68
2023/05/20 07:19:56;;;;;;;5.00;1.23;;;20.60;96.80;;;;;;5053701;28;20527;-68
2023/05/20 07:22:23;;;;;;;4.10;1.30;;;20.80;96.40;;;;;;5070748;28;20044;-69
2023/05/20 07:24:51;;;;;;;2.95;1.13;;;20.90;96.40;;;;;;5054138;28;20047;-68
2023/05/20 07:27:18;;;;;;;2.47;1.30;;;21.20;95.50;;;;;;5070546;28;20049;-68
2023/05/20 07:29:46;;;;;;;3.53;1.52;;;21.40;95.30;;;;;;5071639;28;20049;-68
2023/05/20 07:32:13;;;;;;;4.10;1.38;;;21.50;95.10;;;;;;5071053;28;20117;-67
2023/05/20 07:34:39;;;;;;;1.90;1.13;;;21.70;95.30;;;;;;5053524;28;20496;-69
2023/05/20 07:37:08;;;;;;;3.17;1.33;;;21.80;94.40;;;;;;5053086;28;20041;-67
2023/05/20 07:39:35;;;;;;;2.33;1.20;;;22.00;94.40;;;;;;5071676;28;20060;-68
2023/05/20 07:42:04;;;;;;;3.75;1.40;;;22.30;94.90;;;;;;5052933;28;20044;-68
2023/05/20 07:44:31;;;;;;;5.10;1.67;;;22.50;93.90;;;;;;5052660;28;20100;-68
2023/05/20 07:46:58;;;;;;;3.42;1.50;;;22.60;93.80;;;;;;5069277;28;20373;-68
2023/05/20 07:49:25;;;;;;;2.58;1.30;;;22.80;93.40;;;;;;5069381;28;20056;-68
2023/05/20 07:51:52;;;;;;;4.22;1.20;;;22.90;92.90;;;;;;5050122;28;20442;-67
2023/05/20 07:54:19;;;;;;;4.85;1.33;;;22.90;92.50;;;;;;5052034;28;20056;-67
2023/05/20 07:56:46;;;;;;;4.22;1.48;;;22.60;91.60;;;;;;5054040;28;20057;-68
2023/05/20 07:59:14;;;;;;;3.60;1.30;;;22.70;92.00;;;;;;5052354;28;20567;-67
2023/05/20 08:01:42;;;;;;;4.95;1.45;;;22.80;92.10;;;;;;5072358;28;20048;-68
2023/05/20 08:04:09;;;;;;;1.83;1.10;;;23.00;91.60;;;;;;5052782;28;20451;-68
2023/05/20 08:06:36;;;;;;;2.42;1.23;;;22.90;91.60;;;;;;5053911;28;20060;-68
2023/05/20 08:09:03;;;;;;;3.05;1.40;;;23.30;92.00;;;;;;5071443;28;20048;-69
2023/05/20 08:11:30;;;;;;;4.55;1.65;;;23.20;91.30;;;;;;5068682;28;20084;-68
2023/05/20 08:13:57;;;;;;;8.18;1.23;;;23.50;91.20;;;;;;5070165;28;20044;-68
2023/05/20 08:16:25;;;;;;;3.53;1.13;;;23.40;90.70;;;;;;5070071;28;20044;-68
2023/05/20 08:18:52;;;;;;;1.42;0.90;;;23.40;90.80;;;;;;5069568;28;20047;-68
2023/05/20 08:21:20;;;;;;;6.15;1.52;;;23.70;90.60;;;;;;5071835;28;20052;-67
2023/05/20 08:23:47;;;;;;;4.93;1.20;;;23.90;90.80;;;;;;5052606;28;20045;-68
2023/05/20 08:26:14;;;;;;;3.65;1.00;;;24.20;90.30;;;;;;5052578;28;20048;-68
2023/05/20 08:28:41;;;;;;;3.65;1.30;;;24.20;89.90;;;;;;5070147;28;20076;-68
2023/05/20 08:31:08;;;;;;;2.45;1.00;;;24.30;89.20;;;;;;5048637;28;20060;-68
2023/05/20 08:33:36;;;;;;;2.90;1.05;;;24.10;88.60;;;;;;5052624;28;20070;-77
2023/05/20 08:36:04;;;;;;;2.42;1.10;;;24.50;89.40;;;;;;5069217;28;20102;-69
2023/05/20 08:38:30;;;;;;;5.03;1.25;;;24.60;89.00;;;;;;5070018;28;20048;-68
2023/05/20 08:40:58;;;;;;;3.95;1.42;;;24.70;88.10;;;;;;5052151;28;20057;-69
2023/05/20 08:43:25;;;;;;;6.53;1.23;;;24.70;87.70;;;;;;5053486;28;20447;-69
2023/05/20 08:45:53;;;;;;;2.00;1.13;;;25.00;87.40;;;;;;5051244;28;20051;-68
2023/05/20 08:48:23;;;;;;;4.28;1.23;;;24.90;86.30;;;;;;5053274;28;20050;-68
2023/05/20 08:50:51;;;;;;;;;;;25.20;85.60;;;;;;5068267;28;20044;-69
2023/05/20 08:53:20;;;;;;;3.60;1.40;;;25.00;84.50;;;;;;5052587;28;20414;-70
2023/05/20 08:55:53;;;;;;;4.13;1.65;;;25.20;86.30;;;;;;5050748;28;20556;-69
2023/05/20 08:58:22;;;;;;;2.90;1.60;;;25.30;85.30;;;;;;5053232;28;20041;-68
2023/05/20 09:00:49;;;;;;;2.85;1.20;;;25.70;85.70;;;;;;5068506;28;20124;-69
2023/05/20 09:03:17;;;;;;;3.20;1.30;;;25.30;85.40;;;;;;5070341;28;20074;-68
2023/05/20 09:05:44;;;;;;;2.85;0.88;;;25.60;85.60;;;;;;5051564;28;20040;-69
2023/05/20 09:08:13;;;;;;;4.68;1.20;;;25.50;85.10;;;;;;5051272;28;20060;-69
2023/05/20 09:10:41;;;;;;;3.77;1.40;;;25.60;83.80;;;;;;5050741;28;20041;-69
2023/05/20 09:13:09;;;;;;;5.28;2.05;;;25.80;83.20;;;;;;5067277;28;20315;-69
2023/05/20 09:15:36;;;;;;;3.22;1.27;;;25.60;84.30;;;;;;5051726;28;20048;-68
2023/05/20 09:18:05;;;;;;;2.97;1.50;;;25.80;84.60;;;;;;5069301;28;20659;-68
2023/05/20 09:20:35;;;;;;;3.77;1.43;;;25.60;82.80;;;;;;5052730;28;20060;-68
2023/05/20 09:23:04;;;;;;;4.43;1.33;;;25.90;83.20;;;;;;5069528;28;20051;-69
2023/05/20 09:25:33;;;;;;;4.50;1.48;;;26.20;83.30;;;;;;5052072;28;20483;-69
2023/05/20 09:28:00;;;;;;;2.60;1.50;;;26.30;82.40;;;;;;5050120;28;20412;-69
2023/05/20 09:30:27;;;;;;;3.95;1.33;;;26.10;82.30;;;;;;5052993;28;20412;-69
2023/05/20 09:32:55;;;;;;;4.03;1.20;;;26.10;82.10;;;;;;5069568;28;20048;-69
2023/05/20 09:35:23;;;;;;;4.13;1.13;;;26.20;81.90;;;;;;5055632;28;20057;-68
2023/05/20 09:37:53;;;;;;;4.80;1.00;;;26.20;82.10;;;;;;5054023;28;20072;-68
2023/05/20 09:40:23;;;;;;;3.88;1.20;;;26.50;81.60;;;;;;5074889;28;20091;-68
2023/05/20 09:42:54;;;;;;;2.70;1.20;;;26.40;80.90;;;;;;5054402;28;20484;-68
2023/05/20 09:45:22;;;;;;;3.47;1.30;;;26.70;82.30;;;;;;5055272;28;20055;-68
2023/05/20 09:47:51;;;;;;;4.15;1.38;;;26.50;80.50;;;;;;5054073;28;20314;-68
2023/05/20 09:50:21;;;;;;;3.95;1.20;;;26.60;81.10;;;;;;5053560;28;20053;-68
2023/05/20 09:52:48;;;;;;;3.95;1.38;;;26.50;80.50;;;;;;5055050;28;20044;-69
2023/05/20 09:55:17;;;;;;;4.53;1.52;;;26.50;81.10;;;;;;5057465;28;20052;-69
2023/05/20 09:57:45;;;;;;;4.07;1.30;;;26.50;79.20;;;;;;5054094;28;20072;-69
2023/05/20 10:00:16;;;;;;;2.53;1.08;;;26.30;80.20;;;;;;5075001;28;20087;-69
2023/05/20 10:02:44;;;;;;;3.85;1.33;;;26.60;80.50;;;;;;5056902;28;20117;-67
2023/05/20 10:05:17;;;;;;;3.07;1.17;;;26.60;80.00;;;;;;5055592;28;20052;-68
2023/05/20 10:08:33;;;;;;;33.75;26.00;;;26.40;78.00;;;;;;5072730;28;20539;-68
2023/05/20 10:11:11;;;;;;;7.03;3.03;;;26.10;79.90;;;;;;5073465;28;20047;-68
2023/05/20 10:14:00;;;;;;;3.83;1.85;;;26.20;79.00;;;;;;5057116;28;20082;-68
2023/05/20 10:16:45;;;;;;;4.88;1.65;;;25.60;80.10;;;;;;5056442;28;20052;-68
2023/05/20 10:19:26;;;;;;;3.25;1.20;;;25.70;82.10;;;;;;5072935;28;20456;-68
2023/05/20 10:21:58;;;;;;;3.42;1.55;;;25.80;82.70;;;;;;5056173;28;20053;-68
2023/05/20 10:24:31;;;;;;;3.78;1.70;;;25.90;83.10;;;;;;5056389;28;20060;-68
2023/05/20 10:27:00;;;;;;;4.35;1.60;;;26.40;82.80;;;;;;5054756;28;20044;-68
2023/05/20 10:29:27;;;;;;;4.43;1.98;;;26.30;82.40;;;;;;5047295;28;20109;-68
2023/05/20 10:31:56;;;;;;;5.22;1.42;;;26.50;81.50;;;;;;5050388;28;20057;-69
2023/05/20 10:34:23;;;;;;;5.17;1.53;;;26.40;80.70;;;;;;5051566;28;20053;-69
2023/05/20 10:37:00;;;;;;;3.03;1.50;;;26.70;81.50;;;;;;5055886;28;20287;-67
2023/05/20 10:39:28;;;;;;;3.35;1.48;;;26.40;80.30;;;;;;5053428;28;20098;-68
2023/05/20 10:42:06;;;;;;;4.57;1.27;;;26.00;81.80;;;;;;5055639;28;20088;-69
2023/05/20 10:44:41;;;;;;;6.28;2.05;;;26.10;81.40;;;;;;5072002;28;20060;-70
2023/05/20 10:47:09;;;;;;;4.85;1.35;;;25.40;82.00;;;;;;5068084;28;20049;-68
2023/05/20 10:49:41;;;;;;;5.60;1.50;;;25.50;82.40;;;;;;5052767;28;20083;-69
2023/05/20 10:52:10;;;;;;;5.70;1.70;;;25.70;82.40;;;;;;5052652;28;20057;-69
2023/05/20 10:54:43;;;;;;;4.10;1.65;;;25.10;82.80;;;;;;5073175;28;20056;-68
2023/05/20 10:57:10;;;;;;;3.83;1.40;;;24.50;83.90;;;;;;5052236;28;20484;-68
2023/05/20 10:59:37;;;;;;;2.78;1.40;;;24.10;84.40;;;;;;5054541;28;20507;-67
2023/05/20 11:02:05;;;;;;;7.07;1.80;;;24.60;85.80;;;;;;5051372;28;20048;-67
2023/05/20 11:04:34;;;;;;;4.00;1.60;;;25.10;85.70;;;;;;5054796;28;20106;-67
2023/05/20 11:07:01;;;;;;;5.25;1.50;;;24.80;84.50;;;;;;5052621;28;20052;-69
2023/05/20 11:09:30;;;;;;;4.90;1.77;;;24.60;85.60;;;;;;5072884;28;20094;-69
2023/05/20 11:11:57;;;;;;;2.97;1.50;;;25.10;85.00;;;;;;5052671;28;20056;-69
2023/05/20 11:14:24;;;;;;;5.50;1.45;;;24.80;84.90;;;;;;5054398;28;20059;-69
2023/05/20 11:16:56;;;;;;;7.88;2.08;;;24.70;85.20;;;;;;5070735;28;20499;-67
2023/05/20 11:19:23;;;;;;;6.82;2.15;;;24.00;85.10;;;;;;5051581;28;20052;-69
2023/05/20 11:21:52;;;;;;;6.60;2.13;;;23.70;86.00;;;;;;5052895;28;20079;-68
2023/05/20 11:24:25;;;;;;;7.40;1.85;;;23.60;87.10;;;;;;5071934;28;20056;-67
2023/05/20 11:26:52;;;;;;;5.85;2.38;;;24.20;87.80;;;;;;5054717;28;20082;-68
2023/05/20 11:29:20;;;;;;;6.10;1.63;;;24.30;88.10;;;;;;5052729;28;20132;-68
2023/05/20 11:31:49;;;;;;;4.68;1.83;;;24.80;88.60;;;;;;5054527;28;20075;-68
2023/05/20 11:34:16;;;;;;;5.38;1.75;;;25.70;88.20;;;;;;5052605;28;20074;-67
2023/05/20 11:36:44;;;;;;;4.80;1.73;;;25.80;87.60;;;;;;5054473;28;20056;-68
2023/05/20 11:39:13;;;;;;;5.95;2.20;;;25.20;86.70;;;;;;5071427;28;20295;-69
2023/05/20 11:41:42;;;;;;;5.47;2.30;;;24.40;86.70;;;;;;5054222;28;20082;-68
2023/05/20 11:44:12;;;;;;;4.90;1.83;;;24.20;89.10;;;;;;5049561;28;20056;-68
2023/05/20 11:46:42;;;;;;;2.95;1.52;;;24.80;89.00;;;;;;5052299;28;20080;-68
2023/05/20 11:49:10;;;;;;;4.85;2.30;;;25.30;87.80;;;;;;5046315;28;20045;-69
2023/05/20 11:51:38;;;;;;;5.63;2.22;;;25.70;86.50;;;;;;5069038;28;20048;-69
2023/05/20 11:54:06;;;;;;;4.25;1.80;;;26.20;87.00;;;;;;5052251;28;20105;-68
2023/05/20 11:56:36;;;;;;;4.40;1.88;;;25.80;85.90;;;;;;5048771;28;20664;-68
2023/05/20 11:59:03;;;;;;;;;;;25.90;86.30;;;;;;5052713;28;20124;-68
2023/05/20 12:01:36;;;;;;;6.38;2.00;;;26.00;85.40;;;;;;5051005;28;19970;-68
2023/05/20 12:04:04;;;;;;;4.95;1.90;;;26.20;85.50;;;;;;5052651;28;20060;-68
2023/05/20 12:06:31;;;;;;;5.78;1.58;;;26.50;84.60;;;;;;5052437;28;20056;-68
2023/05/20 12:09:05;;;;;;;6.50;1.98;;;26.20;84.40;;;;;;5053720;28;20503;-69
2023/05/20 12:11:35;;;;;;;3.55;1.77;;;26.20;84.40;;;;;;5052015;28;20052;-69
2023/05/20 12:14:02;;;;;;;;;;;25.70;84.00;;;;;;5053987;28;20544;-68
2023/05/20 12:16:30;;;;;;;3.75;1.75;;;25.60;86.10;;;;;;5052643;28;19971;-68
2023/05/20 12:18:56;;;;;;;5.18;2.10;;;25.20;85.90;;;;;;5070047;28;20044;-68
2023/05/20 12:21:23;;;;;;;8.77;2.35;;;24.70;86.10;;;;;;5068884;28;20098;-68
2023/05/20 12:23:56;;;;;;;4.65;2.05;;;25.20;87.50;;;;;;5051391;28;20114;-69
2023/05/20 12:26:23;;;;;;;4.47;1.98;;;25.70;86.40;;;;;;5069243;28;20052;-69
2023/05/20 12:28:51;;;;;;;3.58;1.73;;;26.30;86.10;;;;;;5053213;28;20052;-68
2023/05/20 12:31:18;;;;;;;3.47;1.70;;;26.70;85.00;;;;;;5052201;28;20500;-68
2023/05/20 12:33:45;;;;;;;5.20;2.05;;;27.20;84.10;;;;;;5053143;28;20060;-68
2023/05/20 12:36:12;;;;;;;4.25;2.03;;;27.20;84.10;;;;;;5052290;28;20060;-68
2023/05/20 12:38:40;;;;;;;5.50;2.22;;;27.70;84.30;;;;;;5051374;28;20127;-68
2023/05/20 12:41:07;;;;;;;5.95;2.15;;;27.10;83.20;;;;;;5052383;28;20040;-67
2023/05/20 12:43:35;;;;;;;4.97;2.38;;;26.80;84.00;;;;;;5052168;28;20052;-68
2023/05/20 12:46:03;;;;;;;4.60;1.90;;;26.10;83.60;;;;;;5067681;28;20044;-67
2023/05/20 12:48:30;;;;;;;5.20;2.05;;;25.60;84.80;;;;;;5067146;28;21359;-67
2023/05/20 12:50:57;;;;;;;3.92;2.40;;;25.20;84.70;;;;;;5053231;28;20507;-67
2023/05/20 12:53:24;;;;;;;7.88;2.28;;;25.10;85.60;;;;;;5069147;28;20052;-68